createdAt,value
2017-08-23T08:45:47.770Z,19.50
2017-08-23T08:48:15.268Z,19.70
2017-08-23T08:50:42.742Z,20.10
2017-08-23T08:53:10.226Z,20.40
2017-08-23T08:55:37.724Z,20.30
2017-08-23T08:58:05.188Z,20.40
2017-08-23T09:00:32.683Z,20.70
2017-08-23T09:03:00.181Z,20.30
2017-08-23T09:05:27.678Z,20.70
2017-08-23T09:07:55.159Z,20.40
2017-08-23T09:10:22.635Z,20.30
2017-08-23T09:12:50.126Z,20.60
2017-08-23T09:15:17.599Z,20.60
2017-08-23T09:17:45.107Z,20.60
2017-08-23T09:20:12.595Z,21.10
2017-08-23T09:22:40.081Z,21.20
2017-08-23T09:25:07.579Z,21.30
2017-08-23T09:27:35.070Z,21.40
2017-08-23T09:30:02.550Z,20.90
2017-08-23T09:32:30.023Z,20.80
2017-08-23T09:34:58.259Z,21.50
2017-08-23T09:37:25.766Z,21.40
2017-08-23T09:39:53.269Z,21.40
2017-08-23T09:42:20.735Z,21.40
2017-08-23T09:44:48.279Z,21.20
2017-08-23T09:47:15.770Z,21.30
2017-08-23T09:49:43.275Z,21.10
2017-08-23T09:52:10.738Z,21.40
2017-08-23T09:54:38.240Z,21.50
2017-08-23T09:57:05.748Z,21.20
2017-08-23T09:59:33.235Z,21.70
2017-08-23T10:02:00.729Z,21.70
2017-08-23T10:04:28.211Z,21.30
2017-08-23T10:06:55.721Z,21.80
2017-08-23T10:09:23.219Z,21.70
2017-08-23T10:11:50.721Z,21.70
2017-08-23T10:14:18.217Z,21.60
2017-08-23T10:16:45.727Z,21.90
2017-08-23T10:19:13.219Z,22.00
2017-08-23T10:21:40.679Z,21.90
2017-08-23T10:24:08.864Z,22.20
2017-08-23T10:26:36.350Z,22.10
2017-08-23T10:29:04.595Z,22.20
2017-08-23T10:31:32.071Z,22.20
2017-08-23T10:33:59.570Z,22.30
2017-08-23T10:36:27.063Z,22.30
2017-08-23T10:38:54.568Z,22.20
2017-08-23T10:41:22.030Z,22.20
2017-08-23T10:43:49.583Z,22.40
2017-08-23T10:46:17.083Z,22.60
2017-08-23T10:48:44.583Z,22.60
2017-08-23T10:51:12.071Z,22.40
2017-08-23T10:53:39.570Z,22.50
2017-08-23T10:56:07.062Z,22.50
2017-08-23T10:58:34.543Z,22.70
2017-08-23T11:01:02.121Z,22.90
2017-08-23T11:03:29.595Z,22.80
2017-08-23T11:05:57.067Z,23.00
2017-08-23T11:08:24.571Z,22.90
2017-08-23T11:10:52.070Z,23.00
2017-08-23T11:13:19.535Z,22.90
2017-08-23T11:15:47.012Z,22.50
2017-08-23T11:18:14.511Z,22.70
2017-08-23T11:20:41.962Z,22.60
2017-08-23T11:23:10.221Z,23.00
2017-08-23T11:25:37.679Z,23.00
2017-08-23T11:28:05.173Z,23.20
2017-08-23T11:30:32.661Z,23.20
2017-08-23T11:33:00.146Z,23.10
2017-08-23T11:35:27.635Z,23.00
2017-08-23T11:37:55.109Z,23.20
2017-08-23T11:40:22.623Z,23.00
2017-08-23T11:42:50.107Z,23.20
2017-08-23T11:45:17.578Z,23.50
2017-08-23T11:47:45.055Z,23.50
2017-08-23T11:50:12.550Z,23.80
2017-08-23T11:52:40.062Z,23.60
2017-08-23T11:55:07.520Z,23.50
2017-08-23T11:57:35.011Z,23.50
2017-08-23T12:00:02.516Z,23.10
2017-08-23T12:02:29.970Z,23.00
2017-08-23T12:04:57.468Z,23.50
2017-08-23T12:07:24.972Z,23.50
2017-08-23T12:09:52.444Z,23.60
2017-08-23T12:12:19.924Z,23.60
2017-08-23T12:14:47.411Z,23.80
2017-08-23T12:17:14.921Z,23.40
2017-08-23T12:19:42.383Z,23.50
2017-08-23T12:22:09.894Z,23.60
2017-08-23T12:24:37.358Z,23.80
2017-08-23T12:27:04.815Z,23.70
2017-08-23T12:29:32.353Z,23.70
2017-08-23T12:31:59.817Z,23.90
2017-08-23T12:34:27.300Z,23.70
2017-08-23T12:36:54.762Z,23.60
2017-08-23T12:39:22.271Z,23.90
2017-08-23T12:41:49.732Z,24.10
2017-08-23T12:44:17.206Z,24.00
2017-08-23T12:46:44.712Z,24.10
2017-08-23T12:49:12.200Z,24.20
2017-08-23T12:51:39.672Z,24.10
2017-08-23T12:54:07.183Z,24.00
2017-08-23T12:56:34.700Z,24.00
2017-08-23T12:59:02.158Z,24.10
2017-08-23T13:01:29.648Z,24.00
2017-08-23T13:03:57.140Z,24.30
2017-08-23T13:06:24.631Z,24.30
2017-08-23T13:08:52.127Z,24.20
2017-08-23T13:11:19.618Z,24.10
2017-08-23T13:13:47.112Z,24.00
2017-08-23T13:16:14.600Z,24.40
2017-08-23T13:18:42.085Z,24.30
2017-08-23T13:21:09.571Z,24.40
2017-08-23T13:23:37.040Z,24.40
2017-08-23T13:26:04.561Z,24.20
2017-08-23T13:28:32.051Z,24.20
2017-08-23T13:30:59.535Z,24.40
2017-08-23T13:33:27.015Z,24.60
2017-08-23T13:35:54.494Z,24.70
2017-08-23T13:38:22.011Z,24.50
2017-08-23T13:40:49.535Z,24.60
2017-08-23T13:43:16.998Z,24.70
2017-08-23T13:45:44.538Z,24.90
2017-08-23T13:48:12.008Z,24.60
2017-08-23T13:50:39.500Z,24.40
2017-08-23T13:53:06.964Z,24.50
2017-08-23T13:55:34.470Z,24.60
2017-08-23T13:58:01.951Z,24.90
2017-08-23T14:00:29.431Z,25.00
2017-08-23T14:02:56.939Z,24.70
2017-08-23T14:05:24.407Z,24.80
2017-08-23T14:07:51.931Z,24.60
2017-08-23T14:10:19.386Z,24.60
2017-08-23T14:12:46.874Z,24.60
2017-08-23T14:15:14.375Z,24.70
2017-08-23T14:17:41.835Z,24.50
2017-08-23T14:20:09.346Z,24.60
2017-08-23T14:22:37.588Z,24.90
2017-08-23T14:25:05.103Z,24.80
2017-08-23T14:27:32.583Z,24.70
2017-08-23T14:30:00.055Z,24.80
2017-08-23T14:32:28.426Z,24.70
2017-08-23T14:34:55.890Z,25.00
2017-08-23T14:37:23.378Z,25.60
2017-08-23T14:39:50.857Z,25.20
2017-08-23T14:42:18.324Z,25.10
2017-08-23T14:44:45.814Z,25.00
2017-08-23T14:47:13.279Z,25.10
2017-08-23T14:49:40.765Z,24.90
2017-08-23T14:52:08.264Z,25.00
2017-08-23T14:54:35.746Z,25.30
2017-08-23T14:57:03.227Z,25.50
2017-08-23T14:59:30.683Z,25.50
2017-08-23T15:01:58.175Z,25.20
2017-08-23T15:04:26.400Z,25.20
2017-08-23T15:06:53.911Z,25.20
2017-08-23T15:09:21.403Z,25.10
2017-08-23T15:11:48.899Z,24.80
2017-08-23T15:14:16.367Z,24.80
2017-08-23T15:16:43.844Z,25.10
2017-08-23T15:19:12.113Z,25.40
2017-08-23T15:21:39.608Z,25.40
2017-08-23T15:24:07.082Z,25.20
2017-08-23T15:26:34.551Z,25.30
2017-08-23T15:29:02.092Z,25.20
2017-08-23T15:31:29.571Z,25.10
2017-08-23T15:33:57.064Z,25.20
2017-08-23T15:36:24.577Z,25.20
2017-08-23T15:38:52.067Z,25.70
2017-08-23T15:41:19.557Z,25.90
2017-08-23T15:43:47.039Z,25.60
2017-08-23T15:46:14.559Z,25.80
2017-08-23T15:48:42.025Z,25.80
2017-08-23T15:51:09.507Z,25.70
2017-08-23T15:53:36.989Z,25.50
2017-08-23T15:56:04.443Z,25.80
2017-08-23T15:58:31.947Z,25.90
2017-08-23T16:00:59.449Z,25.80
2017-08-23T16:03:26.932Z,25.70
2017-08-23T16:05:54.451Z,25.60
2017-08-23T16:08:21.906Z,25.50
2017-08-23T16:10:49.418Z,25.60
2017-08-23T16:13:16.883Z,25.80
2017-08-23T16:15:44.402Z,25.70
2017-08-23T16:18:11.897Z,25.70
2017-08-23T16:20:40.311Z,26.00
2017-08-23T16:23:07.815Z,26.00
2017-08-23T16:25:35.284Z,26.10
2017-08-23T16:28:02.968Z,26.10
2017-08-23T16:30:30.490Z,26.10
2017-08-23T16:32:57.954Z,26.00
2017-08-23T16:35:25.460Z,26.40
2017-08-23T16:37:52.936Z,26.30
2017-08-23T16:40:20.420Z,26.00
2017-08-23T16:42:47.916Z,25.60
2017-08-23T16:45:15.400Z,25.70
2017-08-23T16:47:42.926Z,25.70
2017-08-23T16:50:10.390Z,25.90
2017-08-23T16:52:37.860Z,25.90
2017-08-23T16:55:05.350Z,26.20
2017-08-23T16:57:32.820Z,26.00
2017-08-23T17:00:00.338Z,25.70
2017-08-23T17:02:27.821Z,25.70
2017-08-23T17:04:55.279Z,25.60
2017-08-23T17:07:22.770Z,25.50
2017-08-23T17:09:50.268Z,25.50
2017-08-23T17:12:17.762Z,25.40
2017-08-23T17:14:45.239Z,25.20
2017-08-23T17:17:12.746Z,25.00
2017-08-23T17:19:40.210Z,24.90
2017-08-23T17:22:07.666Z,24.80
2017-08-23T17:24:35.170Z,24.60
2017-08-23T17:27:02.668Z,24.40
2017-08-23T17:29:30.186Z,24.20
2017-08-23T17:31:57.658Z,24.00
2017-08-23T17:34:25.106Z,23.50
2017-08-23T17:36:52.619Z,23.20
2017-08-23T17:39:20.080Z,23.00
2017-08-23T17:41:47.575Z,22.90
2017-08-23T17:44:15.137Z,22.70
2017-08-23T17:46:42.659Z,22.40
2017-08-23T17:49:10.155Z,22.30
2017-08-23T17:51:37.640Z,22.10
2017-08-23T17:54:05.162Z,22.00
2017-08-23T17:56:32.655Z,21.90
2017-08-23T17:59:00.144Z,21.80
2017-08-23T18:01:27.637Z,21.40
2017-08-23T18:03:55.126Z,21.40
2017-08-23T18:06:22.658Z,21.40
2017-08-23T18:08:50.125Z,21.20
2017-08-23T18:11:17.606Z,21.00
2017-08-23T18:13:45.628Z,20.80
2017-08-23T18:16:13.094Z,20.90
2017-08-23T18:18:40.599Z,20.70
2017-08-23T18:21:08.085Z,20.60
2017-08-23T18:23:35.587Z,20.40
2017-08-23T18:26:03.091Z,20.30
2017-08-23T18:28:30.545Z,20.10
2017-08-23T18:30:58.054Z,19.90
2017-08-23T18:33:25.531Z,20.00
2017-08-23T18:35:52.995Z,20.20
2017-08-23T18:38:20.513Z,19.70
2017-08-23T18:40:48.001Z,19.50
2017-08-23T18:43:15.521Z,19.60
2017-08-23T18:45:43.008Z,19.60
2017-08-23T18:48:10.483Z,19.40
2017-08-23T18:50:38.037Z,19.40
2017-08-23T18:53:05.494Z,19.70
2017-08-23T18:55:32.971Z,19.30
2017-08-23T18:58:00.466Z,19.10
2017-08-23T19:00:27.981Z,18.90
2017-08-23T19:02:55.460Z,19.10
2017-08-23T19:05:22.935Z,19.30
2017-08-23T19:07:50.434Z,18.90
2017-08-23T19:10:17.892Z,18.70
2017-08-23T19:12:45.407Z,18.90
2017-08-23T19:15:12.865Z,18.60
2017-08-23T19:17:40.342Z,18.40
2017-08-23T19:20:08.624Z,18.80
2017-08-23T19:22:36.108Z,18.70
2017-08-23T19:25:03.571Z,18.90
2017-08-23T19:27:31.075Z,19.10
2017-08-23T19:29:58.552Z,19.10
2017-08-23T19:32:26.060Z,18.60
2017-08-23T19:34:53.541Z,18.30
2017-08-23T19:37:21.062Z,18.20
2017-08-23T19:39:48.546Z,18.20
2017-08-23T19:42:16.027Z,18.30
2017-08-23T19:44:43.522Z,18.50
2017-08-23T19:47:11.031Z,18.50
2017-08-23T19:49:38.539Z,18.50
2017-08-23T19:52:06.017Z,18.60
2017-08-23T19:54:33.478Z,18.20
2017-08-23T19:57:00.978Z,18.30
2017-08-23T19:59:28.435Z,17.70
2017-08-23T20:01:55.960Z,17.80
2017-08-23T20:04:23.472Z,17.90
2017-08-23T20:06:50.955Z,17.70
2017-08-23T20:09:18.440Z,17.30
2017-08-23T20:11:45.924Z,17.20
2017-08-23T20:14:13.458Z,17.50
2017-08-23T20:16:41.697Z,17.80
2017-08-23T20:19:09.227Z,17.80
2017-08-23T20:21:36.739Z,17.90
2017-08-23T20:24:04.215Z,18.10
2017-08-23T20:26:31.704Z,17.60
2017-08-23T20:28:59.183Z,17.50
2017-08-23T20:31:26.663Z,17.60
2017-08-23T20:33:54.136Z,17.50
2017-08-23T20:36:22.354Z,17.50
2017-08-23T20:38:49.871Z,17.30
2017-08-23T20:41:17.352Z,17.20
2017-08-23T20:43:44.840Z,17.00
2017-08-23T20:46:12.433Z,17.10
2017-08-23T20:48:39.951Z,17.30
2017-08-23T20:51:07.446Z,17.40
2017-08-23T20:53:34.959Z,17.60
2017-08-23T20:56:02.465Z,17.60
2017-08-23T20:58:29.920Z,17.70
2017-08-23T21:00:57.389Z,17.50
2017-08-23T21:03:24.894Z,17.50
2017-08-23T21:05:52.370Z,17.60
2017-08-23T21:08:19.904Z,17.10
2017-08-23T21:10:47.364Z,16.60
2017-08-23T21:13:14.841Z,16.70
2017-08-23T21:15:42.467Z,17.10
2017-08-23T21:18:09.954Z,17.10
2017-08-23T21:20:37.478Z,16.70
2017-08-23T21:23:04.980Z,16.80
2017-08-23T21:25:32.460Z,17.10
2017-08-23T21:27:59.978Z,17.10
2017-08-23T21:30:27.451Z,17.00
2017-08-23T21:32:54.932Z,16.50
2017-08-23T21:35:22.419Z,16.10
2017-08-23T21:37:49.892Z,16.30
2017-08-23T21:40:17.378Z,16.60
2017-08-23T21:42:44.839Z,16.80
2017-08-23T21:45:12.310Z,16.70
2017-08-23T21:47:39.808Z,16.70
2017-08-23T21:50:07.262Z,16.60
2017-08-23T21:52:34.771Z,15.80
2017-08-23T21:55:02.247Z,15.90
2017-08-23T21:57:29.736Z,15.80
2017-08-23T21:59:57.235Z,15.90
2017-08-23T22:02:24.732Z,16.30
2017-08-23T22:04:52.212Z,16.50
2017-08-23T22:07:19.679Z,16.60
2017-08-23T22:09:47.170Z,16.60
2017-08-23T22:12:14.652Z,16.60
2017-08-23T22:14:42.132Z,16.50
2017-08-23T22:17:09.640Z,16.50
2017-08-23T22:19:37.130Z,16.40
2017-08-23T22:22:04.667Z,16.40
2017-08-23T22:24:32.129Z,16.50
2017-08-23T22:26:59.619Z,16.20
2017-08-23T22:29:27.075Z,15.60
2017-08-23T22:31:54.575Z,15.70
2017-08-23T22:34:22.050Z,15.90
2017-08-23T22:36:49.515Z,15.80
2017-08-23T22:39:17.019Z,15.90
2017-08-23T22:41:44.475Z,15.70
2017-08-23T22:44:12.738Z,16.10
2017-08-23T22:46:40.206Z,16.10
2017-08-23T22:49:08.496Z,16.10
2017-08-23T22:51:36.024Z,16.10
2017-08-23T22:54:03.487Z,16.10
2017-08-23T22:56:30.984Z,16.10
2017-08-23T22:58:58.450Z,15.70
2017-08-23T23:01:25.948Z,16.00
2017-08-23T23:03:53.426Z,15.40
2017-08-23T23:06:20.908Z,15.70
2017-08-23T23:08:48.418Z,16.00
2017-08-23T23:11:15.867Z,16.00
2017-08-23T23:13:43.358Z,16.00
2017-08-23T23:16:10.852Z,15.80
2017-08-23T23:18:38.342Z,15.90
2017-08-23T23:21:05.835Z,16.00
2017-08-23T23:23:33.306Z,16.00
2017-08-23T23:26:00.806Z,16.00
2017-08-23T23:28:28.296Z,16.00
2017-08-23T23:30:55.760Z,15.90
2017-08-23T23:33:23.283Z,15.90
2017-08-23T23:35:50.747Z,15.80
2017-08-23T23:38:18.232Z,15.80
2017-08-23T23:40:45.686Z,15.60
2017-08-23T23:43:13.209Z,15.70
2017-08-23T23:45:40.671Z,15.20
2017-08-23T23:48:08.145Z,15.30
2017-08-23T23:50:35.634Z,15.00
2017-08-23T23:53:03.108Z,15.30
2017-08-23T23:55:30.575Z,15.40
2017-08-23T23:57:58.052Z,15.50
